Recent forum postings ...
Today
Change wake turbulence after filing FP
Yesterday
KLM-VA site "not responding", is my flight toast?
3 days ago
Fly KLM Mon CTL
2021-04-09
SCHEDULE FLIGHT BOEING 737
2021-04-08
Law and rules in KLM VA
2021-04-04
Flying a Tour.


 
Aircraft IdentFlightrulesType of Flight
KLM740I
NumberType of AircraftWake turbulenceEquipmentTransponder Type
1B737
Departure AerodromeDeparture Time
EHRD1500
Cruising speedFlight level
24036000
Route
DIRECT



Destination AerodromeTotal EETAlternative Aerodrome
EHAM0100EHRD
Other information
KLMVA/ /V/

Explanation of the IVAO flightplan

Rotterdam (EHRD), Netherlands

METAR
EHRD 081225Z AUTO 22014KT 190V250 9999 FEW048 08/M01 Q1022 NOSIG

WINDSW at 16 mph
VISIBILITY16 miles
CONDITIONS
CLOUDSpartly cloudy
TEMP46°F (8°C)
WIND CHILL39°F (4°C)
DEWPT30°F (-1°C)
HUMIDITY53%
BAROMETER1022 hPa (30.18 in Hg)

Schiphol (EHAM), Netherlands

METAR
EHAM 081255Z 25016KT 220V280 9999 FEW044 09/M01 Q1021 NOSIG

WINDWSW at 18 mph
VISIBILITY16 miles
CONDITIONS
CLOUDSpartly cloudy
TEMP48°F (9°C)
WIND CHILL41°F (5°C)
DEWPT30°F (-1°C)
HUMIDITY50%
BAROMETER1021 hPa (30.15 in Hg)

RUNWAYS

RunwayDesignatorSurfaceHeadingLengthWidthAltitudeILSILS-Freq.Glidescope Pitch
18CENTERASPHALT183.223295.5 ft45.11 ft-3.35 ftCAT III ILS/DME 36C108.753
18LEFTASPHALT183.253393.64 ft45.11 ft-3.35 ftCAT III ILS/DME 36R111.953
Registration TimeGroundspeedAltitudeTransponderHeadingLongitudeLatitudeOn ground
12:46 08-04-20210 kts-7 ft22001464.4356751.95057Yes
12:490 kts-7 ft22001464.4356751.95057Yes
12:52183 kts962 ft2200294.4738952.01318No
12:55193 kts1844 ft2200154.5635552.16151No
12:58188 kts1846 ft2200494.6067252.23693No
13:0114 kts-3 ft2200584.769952.30166Yes
13:0425 kts-3 ft22002434.7676452.30593Yes
13:070 kts-3 ft22002444.7667352.30565Yes
13:100 kts-3 ft22002444.7667352.30565Yes
13:130 kts-3 ft22002444.7667352.30565Yes
13:160 kts-3 ft22002444.7667352.30565Yes
13:190 kts-3 ft22002444.7667352.30565Yes